Kezdőlap
METAR-TAF:

METAR-TAF

Repülőterek :

Litchfield Municipal Airport

Litchfield, Illinois, Amerikai Egyesült Államok

földrajzi szélesség: 39-09-44N, földrajzi hosszúság: 089-40-28W, magasság: 210 m

Jelenlegi meteorológiai megfigyelések

A jelentés 19 perccel ezelõtt készült, 12:55 UTC
Északkeleti szél 4 kt
Hőmérséklet 1°C
Páratartalom 93%
Légköri nyomás 1025 hPa
Látótávolság: 8.0 km
Derült ég
Párásság

METAR: K3LF 041255Z AUTO 05004KT 5SM BR CLR 01/00 A3026 RMK AO2 T00060001

Idő: 07:14 (13:14 UTC)


TAF: hiányzik

Meteorológiai megfigyelések és előrejelzések több, mint 4000 repülőtéren (METAR és TAF jelentéseket).

A térképen piros és sárga pontok jelzik az elérhető meteorológiai állomásokat.

Mozgassa az egeret a pont fölött, hogy megjelenjen az állomás neve.

Azután kattintson az időjárási megfigyelések és előrejelzések megtekintéséhez.

A térkép megváltoztatása: kattintson a fekete keresztel jelölt zöld gombra ráközelítéshez, a vonallal jelölt zöld gombra távolításhoz, vagy a zöld nyilakra a szomszédos térképek eléréséhez.


METAR-TAF: